Time;durP1;ratioP1;P1;durP2;ratioP2;P2;SDS_P1;SDS_P2;PMS_P1;PMS_P2;Temp;Humidity;BMP_temperature;BMP_pressure;BME280_temperature;BME280_humidity;BME280_pressure;Samples;Min_cycle;Max_cycle;Signal;HPM_P1;HPM_P2
2023/07/31 00:01:32;;;;;;;32.17;13.60;;;;;;;14.95;100.00;100899.34;5282988;28;20029;-79
2023/07/31 00:04:03;;;;;;;32.13;13.00;;;;;;;14.97;100.00;100901.94;5283066;28;20082;-79
2023/07/31 00:06:35;;;;;;;31.13;11.33;;;;;;;14.95;100.00;100897.59;5281907;28;20120;-78
2023/07/31 00:09:06;;;;;;;30.10;12.50;;;;;;;14.95;100.00;100888.84;5283194;28;20036;-79
2023/07/31 00:11:38;;;;;;;32.20;12.53;;;;;;;14.96;100.00;100895.84;5282833;28;20032;-78
2023/07/31 00:14:09;;;;;;;31.60;12.23;;;;;;;14.98;100.00;100898.41;5283246;28;20458;-79
2023/07/31 00:16:41;;;;;;;27.47;12.30;;;;;;;14.95;100.00;100894.97;5283043;28;20032;-78
2023/07/31 00:19:12;;;;;;;28.77;11.67;;;;;;;14.94;100.00;100898.50;5283152;28;20032;-80
2023/07/31 00:21:44;;;;;;;28.80;11.40;;;;;;;14.94;100.00;100895.88;5283001;28;20057;-78
2023/07/31 00:24:15;;;;;;;26.48;10.63;;;;;;;14.94;100.00;100898.50;5282495;28;20388;-81
2023/07/31 00:26:47;;;;;;;24.53;9.87;;;;;;;14.94;100.00;100897.63;5285058;28;20028;-79
2023/07/31 00:29:18;;;;;;;33.00;9.87;;;;;;;14.94;100.00;100888.00;5286335;28;20036;-79
2023/07/31 00:31:50;;;;;;;28.43;12.20;;;;;;;14.95;100.00;100891.47;5284178;28;20059;-79
2023/07/31 00:34:21;;;;;;;27.97;10.60;;;;;;;14.89;100.00;100892.53;5284960;28;20037;-78
2023/07/31 00:36:52;;;;;;;31.27;11.60;;;;;;;14.90;100.00;100886.38;5281408;28;20541;-80
2023/07/31 00:39:24;;;;;;;24.17;10.97;;;;;;;14.90;100.00;100894.22;5281991;28;20029;-79
2023/07/31 00:41:55;;;;;;;30.03;10.77;;;;;;;14.95;100.00;100888.84;5281728;28;20116;-80
2023/07/31 00:44:27;;;;;;;26.97;9.67;;;;;;;14.91;100.00;100890.72;5281962;28;20032;-80
2023/07/31 00:46:59;;;;;;;28.00;10.67;;;;;;;14.91;100.00;100882.84;5282845;28;20051;-79
2023/07/31 00:49:30;;;;;;;26.85;9.30;;;;;;;14.91;100.00;100884.63;5282918;28;20020;-79
2023/07/31 00:52:02;;;;;;;27.73;9.83;;;;;;;14.94;100.00;100893.25;5282335;28;20086;-80
2023/07/31 00:54:34;;;;;;;31.02;9.77;;;;;;;14.94;100.00;100881.88;5283011;28;20095;-80
2023/07/31 00:57:08;;;;;;;25.10;9.67;;;;;;;14.92;100.00;100879.31;5281650;28;20044;-81
2023/07/31 00:59:39;;;;;;;26.30;10.20;;;;;;;14.91;100.00;100874.97;5282967;28;20187;-80
2023/07/31 01:02:10;;;;;;;27.47;10.60;;;;;;;14.91;100.00;100882.84;5282975;28;20119;-82
2023/07/31 01:04:43;;;;;;;27.93;9.37;;;;;;;14.92;100.00;100888.94;5282717;28;20056;-82
2023/07/31 01:07:28;;;;;;;24.00;9.07;;;;;;;14.92;100.00;100879.31;5285299;28;20098;-79
2023/07/31 01:10:07;;;;;;;23.50;8.90;;;;;;;14.93;100.00;100873.16;5286582;28;20535;-81
2023/07/31 01:12:39;;;;;;;26.20;8.45;;;;;;;14.94;100.00;100879.25;5286309;28;20048;-80
2023/07/31 01:15:10;;;;;;;;;;;;;;;14.90;100.00;100873.25;5286685;28;20029;-81
2023/07/31 01:17:42;;;;;;;22.65;9.52;;;;;;;14.94;100.00;100874.00;5301978;28;20007;-81
2023/07/31 01:20:26;;;;;;;18.73;7.53;;;;;;;14.95;100.00;100873.97;5285852;28;20533;-80
2023/07/31 01:23:17;;;;;;;22.80;8.52;;;;;;;14.97;100.00;100873.06;5286154;28;20039;-79
2023/07/31 01:26:03;;;;;;;17.80;8.02;;;;;;;14.97;100.00;100876.53;5284745;28;20115;-79
2023/07/31 01:28:43;;;;;;;23.63;8.68;;;;;;;14.94;100.00;100874.00;5286515;28;20541;-80
2023/07/31 01:31:20;;;;;;;23.35;9.32;;;;;;;14.96;100.00;100869.59;5285775;28;20384;-78
2023/07/31 01:33:54;;;;;;;19.27;8.55;;;;;;;14.97;100.00;100873.91;5286090;28;20170;-80
2023/07/31 01:36:26;;;;;;;18.58;7.88;;;;;;;14.94;100.00;100874.88;5285807;28;20158;-81
2023/07/31 01:39:01;;;;;;;22.77;8.55;;;;;;;14.94;100.00;100874.00;5285962;28;20528;-78
2023/07/31 01:41:32;;;;;;;21.60;8.43;;;;;;;14.97;100.00;100870.44;5285779;28;20039;-81
2023/07/31 01:44:04;;;;;;;19.40;7.97;;;;;;;14.95;100.00;100878.34;5284267;28;20037;-79
2023/07/31 01:46:35;;;;;;;24.53;8.77;;;;;;;14.98;100.00;100872.16;5285268;28;20471;-77
2023/07/31 01:49:07;;;;;;;19.60;8.00;;;;;;;14.95;100.00;100888.84;5284335;28;20025;-80
2023/07/31 01:51:38;;;;;;;19.30;7.63;;;;;;;14.93;100.00;100867.91;5285230;28;20035;-78
2023/07/31 01:54:11;;;;;;;17.97;8.20;;;;;;;14.94;100.00;100859.13;5287011;28;20476;-79
2023/07/31 01:56:42;;;;;;;23.20;7.85;;;;;;;14.92;100.00;100867.94;5285462;28;20070;-79
2023/07/31 01:59:13;;;;;;;19.80;8.27;;;;;;;14.89;100.00;100865.41;5284123;28;20066;-79
2023/07/31 02:01:45;;;;;;;20.13;8.17;;;;;;;14.86;100.00;100857.63;5285354;28;20068;-79
2023/07/31 02:04:16;;;;;;;24.83;7.83;;;;;;;14.84;100.00;100848.94;5285341;28;20028;-79
2023/07/31 02:06:47;;;;;;;25.90;8.60;;;;;;;14.84;100.00;100852.41;5284228;28;20395;-79
2023/07/31 02:09:19;;;;;;;20.63;8.07;;;;;;;14.82;100.00;100838.50;5285317;28;20059;-79
2023/07/31 02:11:50;;;;;;;16.47;8.03;;;;;;;14.82;100.00;100846.38;5285179;28;20067;-78
2023/07/31 02:14:21;;;;;;;19.47;7.37;;;;;;;14.84;100.00;100835.81;5285027;28;20032;-78
2023/07/31 02:16:53;;;;;;;19.77;7.87;;;;;;;14.86;100.00;100836.63;5285108;28;20042;-79
2023/07/31 02:19:24;;;;;;;21.20;7.80;;;;;;;14.82;100.00;100827.16;5284349;28;20044;-80
2023/07/31 02:21:55;;;;;;;19.97;8.43;;;;;;;14.79;100.00;100828.09;5284684;28;20124;-79
2023/07/31 02:24:27;;;;;;;15.50;7.20;;;;;;;14.79;100.00;100825.47;5284362;28;20063;-80
2023/07/31 02:26:58;;;;;;;20.33;8.67;;;;;;;14.81;100.00;100826.28;5283606;28;20047;-79
2023/07/31 02:29:29;;;;;;;20.47;7.57;;;;;;;14.82;100.00;100833.25;5284684;28;20094;-79
2023/07/31 02:32:01;;;;;;;17.37;6.83;;;;;;;14.80;100.00;100824.56;5284901;28;20025;-79
2023/07/31 02:34:32;;;;;;;16.97;8.13;;;;;;;14.84;100.00;100826.19;5284655;28;20332;-82
2023/07/31 02:37:04;;;;;;;16.47;7.43;;;;;;;14.78;100.00;100823.75;5284558;28;20036;-81
2023/07/31 02:39:35;;;;;;;16.60;8.13;;;;;;;14.80;100.00;100828.97;5285184;28;20029;-81
2023/07/31 02:42:06;;;;;;;22.87;8.67;;;;;;;14.80;100.00;100811.44;5284893;28;20036;-82
2023/07/31 02:44:38;;;;;;;19.53;8.37;;;;;;;14.76;100.00;100809.81;5284917;28;20025;-80
2023/07/31 02:47:09;;;;;;;15.57;7.23;;;;;;;14.77;100.00;100812.38;5285211;28;20025;-81
2023/07/31 02:49:41;;;;;;;20.23;10.03;;;;;;;14.81;100.00;100823.66;5285147;28;20384;-80
2023/07/31 02:52:12;;;;;;;21.63;9.40;;;;;;;14.77;100.00;100820.25;5284442;28;20051;-81
2023/07/31 02:54:44;;;;;;;19.17;7.53;;;;;;;14.75;100.00;100813.34;5284530;28;20071;-81
2023/07/31 02:57:16;;;;;;;22.80;8.30;;;;;;;14.76;100.00;100808.06;5284246;28;20464;-81
2023/07/31 02:59:47;;;;;;;19.30;7.45;;;;;;;14.77;100.00;100806.28;5284278;28;20107;-78
2023/07/31 03:02:19;;;;;;;20.80;8.03;;;;;;;14.80;100.00;100816.69;5266341;28;20103;-80
2023/07/31 03:04:50;;;;;;;19.30;7.70;;;;;;;14.81;100.00;100804.41;5283025;28;20090;-82
2023/07/31 03:07:21;;;;;;;17.77;8.17;;;;;;;14.80;100.00;100808.81;5284266;28;20396;-81
2023/07/31 03:09:53;;;;;;;17.00;8.93;;;;;;;14.81;100.00;100807.03;5284009;28;20038;-80
2023/07/31 03:12:24;;;;;;;16.83;7.50;;;;;;;14.83;100.00;100803.47;5284119;28;20060;-80
2023/07/31 03:14:55;;;;;;;17.97;7.93;;;;;;;14.84;100.00;100799.09;5285659;28;20036;-79
2023/07/31 03:17:27;;;;;;;21.10;7.10;;;;;;;14.87;100.00;100812.13;5285818;28;20060;-78
2023/07/31 03:19:58;;;;;;;19.23;8.13;;;;;;;14.88;100.00;100804.19;5288279;28;20032;-79
2023/07/31 03:22:29;;;;;;;19.53;7.83;;;;;;;14.89;100.00;100795.44;5294477;28;20028;-79
2023/07/31 03:25:05;;;;;;;19.47;7.80;;;;;;;14.93;100.00;100806.69;5284860;28;20029;-78
2023/07/31 03:27:36;;;;;;;20.08;7.63;;;;;;;14.93;100.00;100802.28;5283744;28;20031;-79
2023/07/31 03:30:08;;;;;;;16.13;7.23;;;;;;;14.98;100.00;100798.66;5282819;28;20029;-79
2023/07/31 03:32:39;;;;;;;21.57;8.53;;;;;;;14.99;100.00;100805.63;5283515;28;20025;-80
2023/07/31 03:35:10;;;;;;;17.57;7.43;;;;;;;15.00;100.00;100791.59;5282668;28;20123;-80
2023/07/31 03:37:42;;;;;;;20.53;7.73;;;;;;;15.00;100.00;100784.56;5298960;28;20028;-79
2023/07/31 03:40:13;;;;;;;16.13;6.33;;;;;;;15.06;100.00;100786.16;5283935;28;20040;-80
2023/07/31 03:42:44;;;;;;;16.63;7.60;;;;;;;15.06;100.00;100780.91;5284169;28;20541;-78
2023/07/31 03:45:16;;;;;;;14.43;6.47;;;;;;;15.09;100.00;100786.91;5284643;28;20036;-79
2023/07/31 03:47:47;;;;;;;17.00;7.50;;;;;;;15.13;100.00;100782.41;5299813;28;20470;-78
2023/07/31 03:50:18;;;;;;;19.37;8.13;;;;;;;15.15;100.00;100778.00;5299166;28;20028;-81
2023/07/31 03:52:50;;;;;;;18.67;7.50;;;;;;;15.16;100.00;100769.19;5292402;28;20412;-80
2023/07/31 03:55:21;;;;;;;17.77;8.77;;;;;;;15.19;100.00;100773.50;5283612;28;20472;-80
2023/07/31 03:57:53;;;;;;;17.40;6.60;;;;;;;15.20;100.00;100765.59;5283627;28;20380;-79
2023/07/31 04:00:25;;;;;;;19.73;7.83;;;;;;;15.22;100.00;100765.53;5283349;28;20028;-79
2023/07/31 04:02:56;;;;;;;16.42;6.82;;;;;;;15.23;100.00;100751.47;5283455;28;20031;-80
2023/07/31 04:05:30;;;;;;;15.90;7.50;;;;;;;15.26;100.00;100757.50;5281945;28;20107;-81
2023/07/31 04:08:01;;;;;;;17.10;7.07;;;;;;;15.29;100.00;100749.53;5283879;28;20098;-80
2023/07/31 04:10:33;;;;;;;17.77;7.37;;;;;;;15.33;100.00;100752.91;5284009;28;20037;-79
2023/07/31 04:13:04;;;;;;;19.53;6.60;;;;;;;15.35;100.00;100742.34;5283203;28;20082;-80
2023/07/31 04:15:36;;;;;;;16.93;7.33;;;;;;;15.44;100.00;100752.53;5283189;28;20293;-79
2023/07/31 04:18:07;;;;;;;17.97;7.27;;;;;;;15.44;100.00;100736.78;5283159;28;20033;-80
2023/07/31 04:20:38;;;;;;;16.83;8.20;;;;;;;15.45;100.00;100739.34;5282719;28;20036;-79
2023/07/31 04:23:10;;;;;;;18.00;7.83;;;;;;;15.45;100.00;100741.13;5282709;28;20086;-80
2023/07/31 04:25:41;;;;;;;22.20;7.90;;;;;;;15.50;100.00;100728.69;5283058;28;20032;-80
2023/07/31 04:28:12;;;;;;;12.03;6.23;;;;;;;15.52;100.00;100726.00;5283257;28;20074;-79
2023/07/31 04:30:44;;;;;;;17.27;7.80;;;;;;;15.61;100.00;100723.91;5282747;28;20090;-78
2023/07/31 04:33:15;;;;;;;18.83;7.37;;;;;;;15.64;100.00;100726.44;5283459;28;20104;-80
2023/07/31 04:35:52;;;;;;;15.27;7.03;;;;;;;15.69;100.00;100721.03;5283730;28;20040;-81
2023/07/31 04:38:23;;;;;;;17.95;6.45;;;;;;;15.69;100.00;100724.50;5285099;28;20024;-81
2023/07/31 04:40:55;;;;;;;19.47;7.83;;;;;;;15.65;100.00;100716.81;5284990;28;20131;-81
2023/07/31 04:43:26;;;;;;;14.13;6.77;;;;;;;15.57;100.00;100708.31;5289815;28;20040;-80
2023/07/31 04:45:58;;;;;;;20.27;7.80;;;;;;;15.57;100.00;100708.31;5287172;28;20075;-79
2023/07/31 04:48:29;;;;;;;16.97;6.70;;;;;;;15.61;100.00;100708.16;5290189;28;20056;-81
2023/07/31 04:51:00;;;;;;;17.50;6.37;;;;;;;15.64;100.00;100697.53;5287167;28;20115;-81
2023/07/31 04:53:32;;;;;;;18.20;6.80;;;;;;;15.69;100.00;100703.47;5284977;28;20345;-81
2023/07/31 04:56:04;;;;;;;12.30;6.43;;;;;;;15.69;100.00;100703.47;5286496;28;20048;-81
2023/07/31 04:58:35;;;;;;;17.87;7.33;;;;;;;15.73;100.00;100698.13;5288019;28;20037;-81
2023/07/31 05:01:06;;;;;;;19.30;6.97;;;;;;;15.76;100.00;100698.00;5287839;28;20066;-81
2023/07/31 05:03:38;;;;;;;15.27;6.47;;;;;;;15.73;100.00;100695.50;5287738;28;20379;-80
2023/07/31 05:06:09;;;;;;;17.20;7.60;;;;;;;15.64;100.00;100696.69;5288622;28;20024;-80
2023/07/31 05:08:41;;;;;;;20.17;8.17;;;;;;;15.45;100.00;100693.84;5285776;28;20032;-80
2023/07/31 05:11:12;;;;;;;18.67;8.43;;;;;;;15.34;100.00;100681.06;5287822;28;20078;-82
2023/07/31 05:13:43;;;;;;;14.90;7.80;;;;;;;15.27;100.00;100679.56;5290949;28;20214;-80
2023/07/31 05:16:15;;;;;;;15.43;7.83;;;;;;;15.25;100.00;100687.50;5291948;28;20476;-80
2023/07/31 05:18:46;;;;;;;17.30;7.97;;;;;;;15.25;100.00;100686.66;5289386;28;20159;-81
2023/07/31 05:21:17;;;;;;;17.90;7.73;;;;;;;15.21;100.00;100675.38;5289250;28;20055;-82
2023/07/31 05:23:49;;;;;;;18.00;8.80;;;;;;;15.17;100.00;100684.28;5288772;28;20059;-82
2023/07/31 05:26:20;;;;;;;18.93;8.70;;;;;;;15.21;100.00;100682.41;5289805;28;20028;-81
2023/07/31 05:28:52;;;;;;;13.53;7.50;;;;;;;15.19;100.00;100692.09;5288741;28;20417;-82
2023/07/31 05:31:24;;;;;;;17.97;8.23;;;;;;;15.21;100.00;100685.88;5287225;28;20089;-81
2023/07/31 05:33:55;;;;;;;18.88;8.27;;;;;;;15.20;100.00;100692.06;5287420;28;20032;-82
2023/07/31 05:36:26;;;;;;;14.00;7.93;;;;;;;15.17;100.00;100688.69;5288277;28;20035;-81
2023/07/31 05:38:58;;;;;;;13.93;7.57;;;;;;;15.13;100.00;100687.91;5287241;28;20170;-80
2023/07/31 05:41:29;;;;;;;14.40;7.47;;;;;;;15.14;100.00;100682.59;5291541;28;20033;-81
2023/07/31 05:44:01;;;;;;;14.47;7.53;;;;;;;15.12;100.00;100678.34;5290195;28;20135;-82
2023/07/31 05:46:32;;;;;;;14.93;7.53;;;;;;;15.17;100.00;100665.91;5287444;28;20028;-81
2023/07/31 05:49:04;;;;;;;12.57;6.60;;;;;;;15.11;100.00;100658.22;5288269;28;20088;-81
2023/07/31 05:51:35;;;;;;;17.37;7.90;;;;;;;15.13;100.00;100661.66;5288020;28;20033;-81
2023/07/31 05:54:06;;;;;;;10.83;6.47;;;;;;;15.09;100.00;100654.81;5286849;28;20086;-80
2023/07/31 05:56:38;;;;;;;13.23;7.07;;;;;;;15.08;100.00;100664.44;5287131;28;20502;-80
2023/07/31 05:59:12;;;;;;;13.97;5.67;;;;;;;15.09;100.00;100663.53;5285076;28;20044;-80
2023/07/31 06:01:43;;;;;;;10.38;6.63;;;;;;;15.13;100.00;100659.03;5285969;28;20226;-80
2023/07/31 06:04:15;;;;;;;10.37;6.30;;;;;;;15.11;100.00;100659.06;5286361;28;20036;-79
2023/07/31 06:06:46;;;;;;;11.13;6.93;;;;;;;15.14;100.00;100658.13;5285859;28;20104;-78
2023/07/31 06:09:17;;;;;;;9.17;5.67;;;;;;;15.10;100.00;100667.00;5284471;28;20094;-76
2023/07/31 06:11:49;;;;;;;9.57;5.87;;;;;;;15.13;100.00;100649.41;5285392;28;20033;-79
2023/07/31 06:14:20;;;;;;;11.07;5.87;;;;;;;15.11;100.00;100645.09;5285564;28;20090;-79
2023/07/31 06:16:52;;;;;;;9.07;5.67;;;;;;;15.11;100.00;100650.34;5285512;28;20078;-80
2023/07/31 06:19:23;;;;;;;9.67;5.83;;;;;;;15.09;100.00;100639.06;5285450;28;20040;-81
2023/07/31 06:21:54;;;;;;;9.67;6.70;;;;;;;15.13;100.00;100648.53;5283391;28;20032;-80
2023/07/31 06:24:27;;;;;;;8.97;5.87;;;;;;;15.16;100.00;100639.69;5285179;28;20039;-81
2023/07/31 06:26:59;;;;;;;9.18;6.25;;;;;;;15.22;100.00;100639.50;5285005;28;20029;-80
2023/07/31 06:29:30;;;;;;;10.43;6.40;;;;;;;15.23;100.00;100638.56;5285490;28;20032;-78
2023/07/31 06:32:02;;;;;;;12.00;6.53;;;;;;;15.27;100.00;100637.56;5284847;28;20032;-81
2023/07/31 06:34:33;;;;;;;11.73;7.03;;;;;;;15.23;100.00;100631.56;5285210;28;20036;-81
2023/07/31 06:37:05;;;;;;;12.07;7.23;;;;;;;15.28;100.00;100629.63;5283748;28;20492;-79
2023/07/31 06:39:37;;;;;;;11.33;7.00;;;;;;;15.29;100.00;100626.09;5284645;28;20037;-78
2023/07/31 06:42:09;;;;;;;10.73;6.85;;;;;;;15.27;100.00;100638.41;5284638;28;20315;-79
2023/07/31 06:44:40;;;;;;;11.17;7.70;;;;;;;15.36;100.00;100623.22;5284466;28;20045;-79
2023/07/31 06:47:11;;;;;;;11.90;7.83;;;;;;;15.31;100.00;100613.75;5282959;28;20028;-80
2023/07/31 06:49:43;;;;;;;11.73;7.30;;;;;;;15.28;100.00;100619.13;5284278;28;20412;-81
2023/07/31 06:52:14;;;;;;;10.43;7.37;;;;;;;15.29;100.00;100612.97;5282746;28;20460;-80
2023/07/31 06:55:01;;;;;;;10.03;6.87;;;;;;;15.29;100.00;100612.97;5284582;28;20403;-80
2023/07/31 06:57:33;;;;;;;12.38;7.32;;;;;;;15.27;100.00;100627.06;5284209;28;20017;-78
2023/07/31 07:00:05;;;;;;;11.23;7.37;;;;;;;15.26;100.00;100618.31;5284413;28;20143;-79
2023/07/31 07:02:36;;;;;;;10.35;7.32;;;;;;;15.29;100.00;100620.84;5283840;28;20025;-79
2023/07/31 07:05:08;;;;;;;11.07;7.17;;;;;;;15.36;100.00;100612.72;5283589;28;20035;-79
2023/07/31 07:07:40;;;;;;;11.30;6.90;;;;;;;15.47;100.00;100611.47;5284195;28;20032;-80
2023/07/31 07:10:11;;;;;;;12.40;6.65;;;;;;;15.43;100.00;100607.22;5299344;28;20381;-79
2023/07/31 07:12:43;;;;;;;10.43;6.90;;;;;;;15.45;100.00;100607.16;5283863;28;20040;-78
2023/07/31 07:15:14;;;;;;;15.37;6.73;;;;;;;15.46;100.00;100593.97;5283688;28;20028;-78
2023/07/31 07:17:45;;;;;;;8.97;6.77;;;;;;;15.42;100.00;100595.00;5283773;28;20036;-77
2023/07/31 07:20:19;;;;;;;8.90;5.93;;;;;;;15.40;100.00;100607.31;5283789;28;20109;-78
2023/07/31 07:22:50;;;;;;;9.95;6.38;;;;;;;15.41;100.00;100603.78;5283574;28;20054;-80
2023/07/31 07:25:21;;;;;;;8.77;6.00;;;;;;;15.48;100.00;100596.53;5284433;28;20162;-78
2023/07/31 07:27:53;;;;;;;9.80;6.67;;;;;;;15.41;100.00;100603.78;5283955;28;20039;-82
2023/07/31 07:30:25;;;;;;;10.83;6.37;;;;;;;15.41;100.00;100582.78;5283470;28;20032;-78
2023/07/31 07:32:56;;;;;;;11.23;7.05;;;;;;;15.40;100.00;100596.81;5281900;28;20107;-79
2023/07/31 07:35:28;;;;;;;10.73;7.67;;;;;;;15.37;100.00;100602.16;5283547;28;20029;-79
2023/07/31 07:38:00;;;;;;;13.30;7.50;;;;;;;15.39;100.00;100602.13;5283642;28;20029;-80
2023/07/31 07:40:31;;;;;;;11.48;7.35;;;;;;;15.40;100.00;100607.31;5283336;28;20036;-79
2023/07/31 07:43:03;;;;;;;14.23;8.10;;;;;;;15.38;100.00;100598.66;5283577;28;20484;-79
2023/07/31 07:45:34;;;;;;;12.20;8.67;;;;;;;15.40;100.00;100609.94;5283038;28;20036;-79
2023/07/31 07:48:05;;;;;;;14.13;8.43;;;;;;;15.42;100.00;100599.38;5283468;28;20024;-80
2023/07/31 07:50:38;;;;;;;13.70;9.30;;;;;;;15.49;100.00;100614.03;5282790;28;20028;-78
2023/07/31 07:53:10;;;;;;;20.17;10.38;;;;;;;15.55;100.00;100597.16;5283045;28;20106;-80
2023/07/31 07:55:41;;;;;;;13.20;8.90;;;;;;;15.49;100.00;100603.53;5283722;28;20476;-78
2023/07/31 07:58:12;;;;;;;11.10;7.90;;;;;;;15.53;100.00;100597.22;5283326;28;20486;-79
2023/07/31 08:00:53;;;;;;;13.23;8.97;;;;;;;15.46;100.00;100606.25;5282990;28;20036;-80
2023/07/31 08:03:24;;;;;;;12.65;8.70;;;;;;;15.41;100.00;100598.53;5283321;28;20052;-79
2023/07/31 08:05:59;;;;;;;12.93;9.17;;;;;;;15.46;100.00;100612.34;5283715;28;20112;-81
2023/07/31 08:08:31;;;;;;;15.40;8.98;;;;;;;15.46;100.00;100608.88;5293604;28;20035;-79
2023/07/31 08:11:02;;;;;;;13.13;9.27;;;;;;;15.48;100.00;100604.41;5293128;28;20115;-78
2023/07/31 08:13:36;;;;;;;13.30;9.53;;;;;;;15.50;100.00;100587.72;5291265;28;20032;-79
2023/07/31 08:16:08;;;;;;;13.70;9.02;;;;;;;15.58;100.00;100589.19;5293132;28;20389;-79
2023/07/31 08:18:40;;;;;;;12.57;9.52;;;;;;;15.60;100.00;100595.22;5296520;28;20040;-80
2023/07/31 08:21:11;;;;;;;14.15;9.02;;;;;;;15.51;100.00;100593.81;5294854;28;20024;-79
2023/07/31 08:23:43;;;;;;;13.80;8.53;;;;;;;15.44;100.00;100592.28;5293784;28;20031;-79
2023/07/31 08:26:16;;;;;;;14.33;8.07;;;;;;;15.43;100.00;100596.69;5296044;28;20028;-79
2023/07/31 08:28:47;;;;;;;14.75;7.57;;;;;;;15.50;100.00;100589.44;5299649;28;20021;-79
2023/07/31 08:31:19;;;;;;;14.90;9.10;;;;;;;15.47;100.00;100598.31;5300486;28;20042;-79
2023/07/31 08:33:50;;;;;;;14.43;8.50;;;;;;;15.53;100.00;100601.63;5297251;28;20434;-79
2023/07/31 08:36:21;;;;;;;12.50;8.87;;;;;;;15.55;100.00;100590.13;5294740;28;20453;-79
2023/07/31 08:38:53;;;;;;;11.93;8.37;;;;;;;15.55;100.00;100590.13;5292262;28;20035;-78
2023/07/31 08:41:25;;;;;;;13.07;8.77;;;;;;;15.52;100.00;100594.66;5290614;28;20471;-81
2023/07/31 08:43:57;;;;;;;;;;;;;;;15.52;100.00;100598.16;5290282;28;20459;-77
2023/07/31 08:46:30;;;;;;;11.45;8.60;;;;;;;15.52;100.00;100592.91;5288706;28;19943;-79
2023/07/31 08:49:04;;;;;;;13.05;8.63;;;;;;;15.46;100.00;100593.13;5288321;28;20051;-81
2023/07/31 08:51:36;;;;;;;12.05;8.57;;;;;;;15.48;100.00;100588.66;5288034;28;20020;-80
2023/07/31 08:54:07;;;;;;;17.50;9.33;;;;;;;15.56;100.00;100588.38;5288396;28;20059;-79
2023/07/31 08:56:40;;;;;;;13.67;8.87;;;;;;;15.51;100.00;100588.56;5288236;28;20055;-78
2023/07/31 08:59:14;;;;;;;16.30;10.43;;;;;;;15.61;100.00;100584.66;5288834;28;20032;-81
2023/07/31 09:01:51;;;;;;;12.52;8.70;;;;;;;15.62;100.00;100586.38;5290859;28;20031;-80
2023/07/31 09:04:24;;;;;;;15.23;9.27;;;;;;;15.72;100.00;100589.53;5291463;28;20040;-79
2023/07/31 09:07:00;;;;;;;15.15;9.38;;;;;;;15.85;100.00;100588.16;5287886;28;20024;-81
2023/07/31 09:09:32;;;;;;;11.48;8.80;;;;;;;15.85;100.00;100585.53;5290732;28;20091;-81
2023/07/31 09:12:05;;;;;;;13.43;8.30;;;;;;;15.91;100.00;100581.84;5290195;28;20661;-82
2023/07/31 09:14:38;;;;;;;16.55;9.00;;;;;;;16.07;100.00;100597.00;5291556;28;20365;-79
2023/07/31 09:17:10;;;;;;;12.75;8.00;;;;;;;16.17;100.00;100582.59;5290618;28;20032;-82
2023/07/31 09:19:42;;;;;;;14.77;8.20;;;;;;;16.17;100.00;100574.72;5288353;28;20051;-81
2023/07/31 09:22:13;;;;;;;11.90;7.27;;;;;;;16.16;100.00;100573.00;5289512;28;20032;-81
2023/07/31 09:24:44;;;;;;;10.50;7.03;;;;;;;16.20;100.00;100577.22;5287638;28;20177;-81
2023/07/31 09:27:16;;;;;;;12.67;6.73;;;;;;;16.25;100.00;100569.16;5286399;28;20497;-82
2023/07/31 09:29:58;;;;;;;13.03;7.53;;;;;;;16.41;100.00;100568.47;5286487;28;20036;-83
2023/07/31 09:32:31;;;;;;;9.93;6.63;;;;;;;16.51;100.00;100576.84;5285940;28;20040;-82
2023/07/31 09:35:32;;;;;;;8.80;6.47;;;;;;;16.57;100.00;100575.75;5286431;28;20132;-81
2023/07/31 09:38:07;;;;;;;11.25;6.68;;;;;;;16.63;100.00;100564.97;5285457;28;20044;-82
2023/07/31 09:40:40;;;;;;;14.65;6.45;;;;;;;16.68;100.00;100565.63;5285744;28;20036;-82
2023/07/31 09:43:13;;;;;;;10.15;6.50;;;;;;;16.70;100.00;100561.16;5286964;28;20042;-83
2023/07/31 09:45:45;;;;;;;10.57;6.00;;;;;;;16.77;100.00;100565.22;5286105;28;20078;-83
2023/07/31 09:48:18;;;;;;;7.07;5.43;;;;;;;16.78;100.00;100559.03;5301590;28;20032;-82
2023/07/31 09:50:50;;;;;;;11.70;5.35;;;;;;;16.72;100.00;100566.34;5285105;28;20094;-82
2023/07/31 09:53:29;;;;;;;9.13;6.27;;;;;;;16.73;100.00;100568.91;5285754;28;20056;-81
2023/07/31 09:56:01;;;;;;;11.38;5.07;;;;;;;16.80;100.00;100563.41;5285905;28;20040;-81
2023/07/31 09:58:34;;;;;;;;;;;;;;;16.83;100.00;100571.16;5286341;28;20036;-83
2023/07/31 10:01:05;;;;;;;7.45;5.82;;;;;;;16.85;100.00;100557.03;5285581;28;20249;-81
2023/07/31 10:03:38;;;;;;;13.73;5.80;;;;;;;16.88;100.00;100559.53;5285646;28;20115;-81
2023/07/31 10:06:09;;;;;;;;;;;;;;;16.93;100.00;100565.47;5286112;28;20410;-81
2023/07/31 10:08:44;;;;;;;12.75;6.20;;;;;;;17.05;100.00;100550.94;5287798;28;19965;-83
2023/07/31 10:11:16;;;;;;;8.98;5.05;;;;;;;17.04;100.00;100562.38;5286146;28;20039;-79
2023/07/31 10:13:49;;;;;;;8.18;4.88;;;;;;;17.17;100.00;100562.69;5285734;28;20498;-81
2023/07/31 10:16:21;;;;;;;8.13;4.68;;;;;;;17.45;100.00;100551.81;5286387;28;20116;-81
2023/07/31 10:18:54;;;;;;;7.78;4.35;;;;;;;17.64;100.00;100556.22;5268548;28;20029;-80
2023/07/31 10:21:27;;;;;;;;;;;;;;;17.79;100.00;100576.59;5285683;28;20101;-79
2023/07/31 10:24:00;;;;;;;7.35;4.30;;;;;;;17.62;100.00;100556.28;5285149;28;19917;-80
2023/07/31 10:26:35;;;;;;;8.55;4.75;;;;;;;17.71;100.00;100559.41;5285009;28;20029;-80
2023/07/31 10:29:07;;;;;;;10.45;4.40;;;;;;;17.78;100.00;100559.06;5285109;28;20550;-81
2023/07/31 10:31:38;;;;;;;6.90;4.72;;;;;;;17.92;100.00;100554.97;5284939;28;20108;-82
2023/07/31 10:34:10;;;;;;;7.00;4.20;;;;;;;17.93;100.00;100567.22;5285286;28;20192;-81
2023/07/31 10:36:41;;;;;;;7.73;4.40;;;;;;;17.90;100.00;100562.94;5285543;28;20032;-81
2023/07/31 10:39:39;;;;;;;9.10;4.50;;;;;;;18.00;100.00;100569.50;5285273;28;20036;-80
2023/07/31 10:42:14;;;;;;;7.88;4.15;;;;;;;18.03;100.00;100563.22;5285656;28;20051;-81
2023/07/31 10:44:49;;;;;;;10.48;4.35;;;;;;;17.88;100.00;100566.59;5287576;28;20493;-80
2023/07/31 10:47:20;;;;;;;7.05;4.25;;;;;;;17.93;100.00;100567.22;5286729;28;20044;-79
2023/07/31 10:49:52;;;;;;;8.47;4.50;;;;;;;17.95;100.00;100560.97;5287922;28;20033;-79
2023/07/31 10:52:23;;;;;;;10.27;5.03;;;;;;;18.12;100.00;100562.78;5294298;28;20024;-80
2023/07/31 10:55:36;;;;;;;7.93;3.70;;;;;;;18.18;100.00;100569.56;5285483;28;20075;-81
2023/07/31 10:58:12;;;;;;;;;;;;;;;18.02;100.00;100565.00;5276844;28;20057;-82
2023/07/31 11:00:44;;;;;;;7.50;4.15;;;;;;;18.04;100.00;100560.50;5284916;28;20363;-82
2023/07/31 11:03:17;;;;;;;6.47;4.50;;;;;;;18.03;100.00;100550.91;5284607;28;20055;-80
2023/07/31 11:05:58;;;;;;;9.68;3.75;;;;;;;18.25;100.00;100549.00;5284340;28;20489;-80
2023/07/31 11:08:32;;;;;;;7.25;4.40;;;;;;;18.64;100.00;100551.44;5284435;28;20495;-80
2023/07/31 11:11:03;;;;;;;5.95;4.40;;;;;;;18.95;100.00;100556.06;5284158;28;20039;-80
2023/07/31 11:13:51;;;;;;;7.83;4.07;;;;;;;18.79;100.00;100555.13;5284479;28;20025;-79
2023/07/31 11:16:25;;;;;;;6.50;4.30;;;;;;;18.42;100.00;100562.25;5284133;28;20036;-80
2023/07/31 11:18:56;;;;;;;8.00;4.85;;;;;;;18.33;100.00;100555.63;5283985;28;20031;-81
2023/07/31 11:21:28;;;;;;;7.73;4.10;;;;;;;18.33;100.00;100550.34;5283373;28;20028;-80
2023/07/31 11:23:59;;;;;;;7.63;4.10;;;;;;;18.82;100.00;100544.41;5284099;28;20024;-79
2023/07/31 11:26:31;;;;;;;8.20;4.37;;;;;;;18.93;100.00;100551.78;5283867;28;20456;-80
2023/07/31 11:29:11;;;;;;;6.83;4.23;;;;;;;18.91;100.00;100551.03;5282611;28;20123;-81
2023/07/31 11:31:43;;;;;;;10.40;4.28;;;;;;;19.10;100.00;100540.38;5283616;28;20029;-83
2023/07/31 11:34:15;;;;;;;7.30;4.68;;;;;;;19.58;100.00;100532.56;5282346;28;20092;-81
2023/07/31 11:36:55;;;;;;;7.77;4.40;;;;;;;20.17;97.80;100531.03;5283750;28;20116;-81